createdAt,value
2022-07-28T00:01:42.995Z,14.87
2022-07-28T00:04:11.881Z,15.00
2022-07-28T00:06:40.902Z,14.76
2022-07-28T00:09:10.088Z,14.81
2022-07-28T00:11:51.995Z,14.72
2022-07-28T00:14:24.221Z,14.83
2022-07-28T00:16:54.299Z,14.78
2022-07-28T00:19:23.049Z,14.82
2022-07-28T00:21:51.792Z,14.78
2022-07-28T00:24:20.408Z,14.62
2022-07-28T00:26:48.985Z,14.59
2022-07-28T00:29:17.836Z,14.43
2022-07-28T00:31:46.411Z,14.41
2022-07-28T00:34:16.866Z,14.47
2022-07-28T00:36:45.972Z,14.37
2022-07-28T00:39:15.053Z,14.47
2022-07-28T00:41:43.806Z,14.49
2022-07-28T00:44:13.000Z,14.19
2022-07-28T00:46:41.797Z,14.18
2022-07-28T00:49:10.622Z,13.99
2022-07-28T00:51:41.823Z,13.96
2022-07-28T00:54:11.002Z,13.96
2022-07-28T00:56:40.095Z,14.13
2022-07-28T00:59:08.682Z,14.17
2022-07-28T01:01:37.600Z,14.07
2022-07-28T01:04:07.274Z,13.99
2022-07-28T01:07:01.253Z,13.76
2022-07-28T01:09:54.105Z,13.60
2022-07-28T01:12:42.038Z,13.61
2022-07-28T01:15:23.774Z,13.57
2022-07-28T01:18:03.750Z,13.53
2022-07-28T01:20:40.613Z,13.53
2022-07-28T01:23:51.151Z,13.47
2022-07-28T01:26:55.666Z,13.50
2022-07-28T01:29:51.214Z,13.35
2022-07-28T01:32:26.167Z,13.39
2022-07-28T01:35:01.766Z,13.27
2022-07-28T01:37:37.548Z,13.16
2022-07-28T01:40:12.069Z,13.19
2022-07-28T01:42:48.158Z,13.06
2022-07-28T01:45:19.156Z,12.90
2022-07-28T01:47:54.242Z,12.81
2022-07-28T01:50:27.448Z,12.76
2022-07-28T01:52:59.167Z,12.90
2022-07-28T01:55:29.882Z,12.87
2022-07-28T01:57:59.115Z,12.99
2022-07-28T02:00:29.172Z,12.98
2022-07-28T02:03:03.801Z,12.94
2022-07-28T02:05:34.740Z,12.95
2022-07-28T02:08:07.290Z,12.98
2022-07-28T02:10:38.187Z,12.95
2022-07-28T02:13:08.115Z,12.96
2022-07-28T02:15:40.331Z,12.89
2022-07-28T02:18:12.523Z,12.77
2022-07-28T02:20:42.584Z,12.72
2022-07-28T02:23:15.592Z,12.67
2022-07-28T02:25:45.427Z,12.68
2022-07-28T02:28:17.062Z,12.82
2022-07-28T02:30:56.964Z,12.85
2022-07-28T02:33:59.885Z,12.95
2022-07-28T02:36:27.975Z,12.86
2022-07-28T02:39:04.423Z,12.65
2022-07-28T02:41:40.565Z,12.57
2022-07-28T02:44:15.975Z,12.51
2022-07-28T02:46:49.214Z,12.45
2022-07-28T02:49:26.512Z,12.52
2022-07-28T02:51:59.235Z,12.46
2022-07-28T02:54:29.889Z,12.54
2022-07-28T02:57:01.155Z,12.49
2022-07-28T02:59:31.309Z,12.47
2022-07-28T03:02:01.258Z,12.54
2022-07-28T03:04:49.812Z,12.48
2022-07-28T03:07:19.313Z,12.48
2022-07-28T03:09:49.645Z,12.51
2022-07-28T03:12:18.918Z,12.59
2022-07-28T03:14:47.829Z,12.65
2022-07-28T03:17:17.710Z,12.78
2022-07-28T03:19:47.947Z,12.80
2022-07-28T03:22:16.840Z,12.71
2022-07-28T03:24:50.907Z,12.65
2022-07-28T03:27:25.839Z,12.44
2022-07-28T03:30:03.811Z,12.38
2022-07-28T03:32:36.344Z,12.24
2022-07-28T03:35:08.302Z,12.20
2022-07-28T03:37:53.896Z,12.22
2022-07-28T03:40:26.121Z,12.37
2022-07-28T03:42:56.997Z,12.49
2022-07-28T03:45:27.422Z,12.57
2022-07-28T03:47:58.096Z,12.59
2022-07-28T03:50:31.612Z,12.65
2022-07-28T03:53:03.879Z,12.74
2022-07-28T03:55:32.458Z,12.76
2022-07-28T03:58:01.573Z,12.79
2022-07-28T04:00:30.384Z,12.83
2022-07-28T04:02:58.997Z,13.05
2022-07-28T04:05:29.303Z,13.14
2022-07-28T04:07:57.847Z,13.32
2022-07-28T04:10:26.605Z,13.34
2022-07-28T04:12:57.605Z,13.33
2022-07-28T04:15:28.199Z,13.23
2022-07-28T04:17:58.117Z,13.46
2022-07-28T04:20:29.523Z,13.45
2022-07-28T04:22:58.490Z,13.58
2022-07-28T04:25:28.934Z,13.52
2022-07-28T04:27:57.686Z,13.61
2022-07-28T04:30:28.002Z,13.69
2022-07-28T04:32:57.179Z,13.75
2022-07-28T04:35:27.344Z,13.77
2022-07-28T04:37:58.656Z,13.95
2022-07-28T04:40:28.767Z,14.09
2022-07-28T04:42:57.938Z,14.05
2022-07-28T04:45:26.683Z,14.43
2022-07-28T04:47:55.285Z,14.54
2022-07-28T04:50:24.092Z,14.58
2022-07-28T04:53:00.713Z,14.79
2022-07-28T04:55:29.714Z,14.76
2022-07-28T04:57:58.245Z,14.80
2022-07-28T05:00:27.611Z,15.05
2022-07-28T05:02:58.457Z,15.20
2022-07-28T05:05:27.269Z,15.13
2022-07-28T05:07:55.928Z,15.14
2022-07-28T05:10:26.219Z,15.36
2022-07-28T05:12:54.852Z,15.60
2022-07-28T05:15:23.461Z,15.55
2022-07-28T05:17:52.220Z,15.78
2022-07-28T05:20:20.898Z,15.96
2022-07-28T05:22:53.636Z,16.11
2022-07-28T05:25:25.514Z,16.23
2022-07-28T05:27:55.792Z,16.28
2022-07-28T05:30:24.730Z,16.41
2022-07-28T05:32:59.252Z,16.63
2022-07-28T05:35:28.361Z,16.79
2022-07-28T05:37:56.945Z,16.95
2022-07-28T05:40:27.277Z,17.27
2022-07-28T05:42:56.083Z,17.62
2022-07-28T05:45:25.003Z,17.89
2022-07-28T05:47:54.785Z,18.11
2022-07-28T05:50:25.295Z,18.21
2022-07-28T05:52:54.227Z,18.35
2022-07-28T05:55:22.820Z,18.81
2022-07-28T05:57:54.200Z,19.30
2022-07-28T06:00:24.827Z,19.67
2022-07-28T06:02:54.062Z,19.66
2022-07-28T06:05:24.467Z,19.57
2022-07-28T06:07:53.191Z,19.59
2022-07-28T06:10:24.680Z,19.40
2022-07-28T06:12:57.889Z,19.39
2022-07-28T06:15:28.405Z,19.33
2022-07-28T06:17:57.272Z,19.39
2022-07-28T06:20:27.864Z,19.54
2022-07-28T06:22:57.542Z,19.59
2022-07-28T06:25:29.083Z,19.74
2022-07-28T06:28:00.958Z,19.80
2022-07-28T06:30:30.772Z,19.86
2022-07-28T06:33:00.613Z,20.15
2022-07-28T06:35:29.244Z,21.11
2022-07-28T06:37:58.018Z,21.80
2022-07-28T06:40:26.703Z,23.25
2022-07-28T06:42:55.435Z,23.79
2022-07-28T06:45:25.746Z,23.42
2022-07-28T06:47:55.141Z,22.68
2022-07-28T06:50:25.196Z,23.56
2022-07-28T06:52:56.392Z,23.24
2022-07-28T06:55:25.169Z,23.04
2022-07-28T06:57:54.406Z,22.74
2022-07-28T07:00:23.319Z,22.42
2022-07-28T07:02:53.366Z,21.80
2022-07-28T07:05:21.952Z,21.46
2022-07-28T07:07:50.777Z,21.93
2022-07-28T07:10:19.346Z,22.83
2022-07-28T07:12:47.933Z,23.15
2022-07-28T07:15:16.788Z,23.21
2022-07-28T07:17:45.340Z,22.64
2022-07-28T07:20:17.233Z,22.65
2022-07-28T07:22:48.998Z,22.38
2022-07-28T07:25:19.933Z,22.33
2022-07-28T07:27:48.958Z,22.11
2022-07-28T07:30:18.435Z,21.97
2022-07-28T07:32:47.054Z,22.08
2022-07-28T07:35:17.153Z,22.42
2022-07-28T07:37:45.790Z,23.27
2022-07-28T07:40:14.400Z,23.70
2022-07-28T07:42:43.216Z,23.77
2022-07-28T07:45:12.303Z,24.20
2022-07-28T07:47:40.998Z,23.76
2022-07-28T07:50:10.878Z,23.97
2022-07-28T07:52:40.843Z,24.03
2022-07-28T07:55:10.905Z,24.51
2022-07-28T07:57:39.717Z,25.69
2022-07-28T08:00:28.558Z,27.35
2022-07-28T08:02:58.532Z,27.69
2022-07-28T08:05:34.822Z,27.37
2022-07-28T08:08:07.172Z,26.62
2022-07-28T08:10:36.148Z,25.57
2022-07-28T08:13:06.375Z,26.06
2022-07-28T08:15:35.978Z,27.56
2022-07-28T08:18:05.266Z,27.78
2022-07-28T08:20:34.098Z,27.52
2022-07-28T08:23:02.884Z,27.43
2022-07-28T08:25:35.818Z,26.95
2022-07-28T08:28:05.261Z,26.02
2022-07-28T08:30:33.997Z,26.05
2022-07-28T08:33:03.428Z,26.55
2022-07-28T08:35:34.769Z,26.56
2022-07-28T08:38:05.575Z,26.88
2022-07-28T08:40:39.491Z,26.97
2022-07-28T08:43:21.036Z,26.36
2022-07-28T08:45:57.763Z,26.43
2022-07-28T08:48:31.543Z,27.79
2022-07-28T08:51:05.513Z,28.52
2022-07-28T08:53:37.757Z,28.77
2022-07-28T08:56:10.595Z,29.77
2022-07-28T08:58:39.755Z,29.97
2022-07-28T09:01:11.064Z,29.40
2022-07-28T09:03:40.514Z,29.90
2022-07-28T09:06:09.515Z,29.10
2022-07-28T09:08:38.430Z,30.05
2022-07-28T09:11:08.411Z,30.84
2022-07-28T09:13:38.360Z,30.65
2022-07-28T09:16:07.803Z,31.55
2022-07-28T09:18:36.833Z,33.13
2022-07-28T09:21:06.237Z,32.72
2022-07-28T09:23:46.189Z,33.24
2022-07-28T09:26:17.265Z,35.22
2022-07-28T09:28:53.131Z,34.60
2022-07-28T09:31:23.791Z,34.77
2022-07-28T09:33:58.507Z,35.68
2022-07-28T09:36:27.251Z,34.46
2022-07-28T09:38:56.738Z,33.79
2022-07-28T09:41:26.685Z,32.88
2022-07-28T09:43:55.965Z,33.25
2022-07-28T09:46:29.477Z,33.22
2022-07-28T09:49:01.186Z,33.98
2022-07-28T09:51:32.093Z,36.07
2022-07-28T09:54:10.972Z,34.85
2022-07-28T09:56:45.915Z,34.84
2022-07-28T09:59:16.985Z,33.68
2022-07-28T10:01:56.536Z,33.91
2022-07-28T10:04:34.144Z,34.43
2022-07-28T10:07:06.803Z,35.03
2022-07-28T10:09:35.623Z,34.83
2022-07-28T10:12:18.467Z,33.32
2022-07-28T10:14:47.619Z,32.90
2022-07-28T10:17:29.454Z,32.15
2022-07-28T10:19:59.700Z,31.43
2022-07-28T10:22:33.414Z,29.09
2022-07-28T10:25:06.819Z,28.99
2022-07-28T10:27:37.759Z,28.42
2022-07-28T10:30:08.229Z,28.38
2022-07-28T10:32:42.977Z,28.80
2022-07-28T10:35:14.749Z,28.28
2022-07-28T10:37:52.534Z,27.79
2022-07-28T10:40:29.851Z,27.50
2022-07-28T10:43:01.446Z,27.48
2022-07-28T10:45:55.070Z,26.98
2022-07-28T10:48:23.982Z,27.11
2022-07-28T10:50:54.699Z,26.80
2022-07-28T10:53:37.285Z,26.89
2022-07-28T10:56:16.724Z,27.30
2022-07-28T10:59:04.742Z,27.02
2022-07-28T11:01:53.865Z,26.41
2022-07-28T11:04:59.169Z,26.60
2022-07-28T11:07:40.619Z,26.73
2022-07-28T11:10:20.538Z,27.10
2022-07-28T11:12:51.360Z,27.04
2022-07-28T11:15:33.714Z,27.20
2022-07-28T11:18:07.467Z,26.79
2022-07-28T11:21:10.266Z,26.12
2022-07-28T11:23:54.690Z,26.34
2022-07-28T11:26:36.487Z,26.22
2022-07-28T11:29:25.880Z,25.86
2022-07-28T11:32:06.597Z,25.43
2022-07-28T11:35:08.627Z,25.36
2022-07-28T11:38:14.544Z,25.14
2022-07-28T11:40:45.546Z,25.02
2022-07-28T11:43:36.775Z,24.98
2022-07-28T11:46:38.453Z,24.96
2022-07-28T11:49:28.630Z,24.87
2022-07-28T11:52:22.592Z,24.91
2022-07-28T11:54:58.063Z,24.82
2022-07-28T11:57:29.040Z,24.86
2022-07-28T12:00:01.184Z,24.83
2022-07-28T12:02:33.260Z,24.81
2022-07-28T12:05:12.037Z,24.68
2022-07-28T12:07:45.591Z,24.59
2022-07-28T12:10:53.952Z,24.61
2022-07-28T12:13:28.754Z,24.71
2022-07-28T12:15:57.911Z,24.86
2022-07-28T12:18:26.730Z,25.02
2022-07-28T12:20:58.559Z,25.03
2022-07-28T12:23:39.396Z,25.05
2022-07-28T12:26:31.668Z,25.07
2022-07-28T12:29:01.843Z,25.27
2022-07-28T12:31:33.856Z,25.20
2022-07-28T12:34:06.238Z,25.01
2022-07-28T12:36:37.640Z,24.73
2022-07-28T12:39:12.738Z,24.92
2022-07-28T12:41:41.634Z,25.17
2022-07-28T12:44:12.176Z,25.37
2022-07-28T12:46:48.855Z,25.46
2022-07-28T12:49:23.945Z,25.46
2022-07-28T12:51:54.119Z,25.22
2022-07-28T12:54:37.149Z,25.01
2022-07-28T12:57:06.594Z,24.92
2022-07-28T12:59:38.735Z,24.81
2022-07-28T13:02:09.323Z,24.85
2022-07-28T13:04:46.482Z,24.91
2022-07-28T13:07:26.010Z,24.73
2022-07-28T13:10:05.313Z,24.92
2022-07-28T13:12:34.976Z,25.11
2022-07-28T13:15:07.001Z,25.28
2022-07-28T13:17:51.810Z,25.23
2022-07-28T13:20:22.321Z,25.10
2022-07-28T13:22:53.480Z,24.96
2022-07-28T13:25:22.887Z,24.92
2022-07-28T13:27:55.715Z,24.94
2022-07-28T13:30:24.830Z,24.84
2022-07-28T13:32:54.821Z,24.91
2022-07-28T13:35:23.657Z,25.05
2022-07-28T13:37:53.762Z,25.19
2022-07-28T13:40:22.789Z,25.24
2022-07-28T13:42:53.296Z,25.45
2022-07-28T13:45:26.178Z,25.34
2022-07-28T13:47:59.001Z,25.26
2022-07-28T13:50:28.053Z,25.57
2022-07-28T13:52:58.603Z,25.73
2022-07-28T13:55:27.522Z,25.80
2022-07-28T13:57:56.709Z,25.91
2022-07-28T14:00:25.860Z,25.84
2022-07-28T14:02:54.536Z,25.82
2022-07-28T14:05:23.377Z,25.84
2022-07-28T14:07:52.111Z,25.91
2022-07-28T14:10:26.725Z,25.86
2022-07-28T14:12:56.442Z,25.70
2022-07-28T14:15:25.077Z,25.58
2022-07-28T14:17:53.814Z,25.44
2022-07-28T14:20:22.614Z,25.37
2022-07-28T14:22:52.443Z,25.22
2022-07-28T14:25:22.529Z,25.36
2022-07-28T14:27:54.620Z,25.45
2022-07-28T14:30:26.858Z,25.38
2022-07-28T14:32:58.113Z,25.22
2022-07-28T14:35:26.760Z,25.28
2022-07-28T14:38:41.901Z,25.16
2022-07-28T14:40:45.682Z,25.06
2022-07-28T14:56:38.608Z,25.53
2022-07-28T14:59:07.428Z,25.46
2022-07-28T15:01:36.607Z,25.80
2022-07-28T15:04:06.462Z,25.84
2022-07-28T15:06:35.249Z,25.76
2022-07-28T15:09:04.264Z,25.55
2022-07-28T15:11:32.915Z,25.36
2022-07-28T15:14:03.545Z,25.33
2022-07-28T15:16:32.398Z,25.29
2022-07-28T15:19:01.031Z,25.24
2022-07-28T15:21:34.383Z,25.32
2022-07-28T15:24:07.524Z,25.34
2022-07-28T15:26:36.747Z,25.44
2022-07-28T15:29:07.124Z,25.44
2022-07-28T15:31:37.777Z,25.51
2022-07-28T15:34:08.624Z,25.60
2022-07-28T15:36:39.172Z,25.53
2022-07-28T15:39:09.267Z,25.47
2022-07-28T15:41:38.108Z,25.50
2022-07-28T15:44:09.760Z,25.62
2022-07-28T15:46:39.188Z,25.71
2022-07-28T15:49:09.919Z,25.68
2022-07-28T15:51:39.688Z,25.62
2022-07-28T15:54:08.548Z,25.53
2022-07-28T15:56:38.276Z,25.43
2022-07-28T15:59:09.298Z,25.46
2022-07-28T16:01:45.161Z,25.63
2022-07-28T16:04:14.365Z,25.67
2022-07-28T16:07:00.974Z,25.78
2022-07-28T16:09:45.683Z,25.91
2022-07-28T16:12:15.799Z,25.99
2022-07-28T16:14:45.911Z,25.88
2022-07-28T16:17:14.605Z,25.97
2022-07-28T16:19:49.647Z,26.13
2022-07-28T16:22:20.501Z,26.23
2022-07-28T16:24:50.823Z,26.16
2022-07-28T16:27:19.710Z,26.34
2022-07-28T16:29:50.351Z,26.41
2022-07-28T16:32:19.166Z,26.34
2022-07-28T16:34:49.186Z,26.17
2022-07-28T16:37:19.719Z,26.23
2022-07-28T16:39:49.622Z,26.24
2022-07-28T16:42:18.442Z,25.92
2022-07-28T16:44:48.817Z,25.65
2022-07-28T16:47:17.981Z,26.18
2022-07-28T16:49:46.969Z,25.27
2022-07-28T16:52:16.411Z,24.84
2022-07-28T16:54:45.812Z,25.04
2022-07-28T16:57:16.997Z,24.81
2022-07-28T16:59:48.946Z,24.44
2022-07-28T17:02:20.266Z,24.33
2022-07-28T17:04:49.506Z,23.85
2022-07-28T17:07:18.638Z,24.29
2022-07-28T17:09:47.652Z,24.13
2022-07-28T17:12:16.944Z,24.14
2022-07-28T17:14:45.979Z,23.83
2022-07-28T17:17:14.961Z,23.29
2022-07-28T17:19:47.736Z,23.01
2022-07-28T17:22:16.799Z,22.78
2022-07-28T17:24:48.193Z,22.56
2022-07-28T17:27:37.987Z,22.36
2022-07-28T17:30:07.166Z,22.20
2022-07-28T17:32:36.116Z,22.16
2022-07-28T17:35:08.238Z,22.13
2022-07-28T17:37:58.254Z,21.91
2022-07-28T17:40:27.698Z,21.83
2022-07-28T17:42:56.964Z,21.67
2022-07-28T17:45:26.415Z,21.54
2022-07-28T17:47:55.383Z,21.44
2022-07-28T17:50:25.798Z,21.34
2022-07-28T17:52:55.034Z,21.26
2022-07-28T17:55:57.533Z,21.19
2022-07-28T17:58:29.156Z,21.06
2022-07-28T18:01:10.441Z,20.98
2022-07-28T18:03:59.304Z,20.88
2022-07-28T18:06:36.720Z,20.79
2022-07-28T18:09:08.224Z,20.67
2022-07-28T18:11:57.405Z,20.58
2022-07-28T18:14:28.843Z,20.49
2022-07-28T18:16:58.280Z,20.41
2022-07-28T18:19:27.923Z,20.30
2022-07-28T18:21:58.597Z,20.20
2022-07-28T18:24:27.560Z,20.06
2022-07-28T18:26:58.319Z,19.95
2022-07-28T18:29:38.010Z,19.85
2022-07-28T18:32:09.898Z,19.76
2022-07-28T18:34:40.439Z,19.66
2022-07-28T18:37:11.064Z,19.58
2022-07-28T18:39:40.363Z,19.47
2022-07-28T18:42:09.436Z,19.39
2022-07-28T18:44:38.766Z,19.30
2022-07-28T18:47:10.584Z,19.21
2022-07-28T18:49:39.806Z,19.14
2022-07-28T18:52:10.114Z,19.06
2022-07-28T18:54:39.069Z,18.96
2022-07-28T18:57:08.269Z,18.90
2022-07-28T18:59:43.218Z,18.84
2022-07-28T19:02:15.087Z,18.77
2022-07-28T19:04:44.362Z,18.73
2022-07-28T19:07:16.131Z,18.67
2022-07-28T19:09:45.542Z,18.55
2022-07-28T19:12:15.140Z,18.48
2022-07-28T19:14:44.093Z,18.42
2022-07-28T19:17:13.205Z,18.37
2022-07-28T19:19:42.170Z,18.29
2022-07-28T19:22:11.157Z,18.24
2022-07-28T19:24:41.660Z,18.23
2022-07-28T19:27:11.719Z,18.19
2022-07-28T19:29:40.933Z,18.16
2022-07-28T19:32:09.869Z,18.11
2022-07-28T19:34:38.901Z,18.03
2022-07-28T19:37:08.082Z,17.96
2022-07-28T19:39:47.197Z,17.89
2022-07-28T19:42:16.386Z,17.83
2022-07-28T19:44:45.887Z,17.72
2022-07-28T19:47:14.901Z,17.65
2022-07-28T19:49:44.112Z,17.61
2022-07-28T19:52:13.130Z,17.52
2022-07-28T19:54:42.097Z,17.47
2022-07-28T19:57:12.672Z,17.46
2022-07-28T19:59:43.593Z,17.37
2022-07-28T20:02:14.337Z,17.31
2022-07-28T20:04:43.814Z,17.24
2022-07-28T20:07:12.928Z,17.20
2022-07-28T20:09:41.866Z,17.16
2022-07-28T20:12:12.207Z,17.13
2022-07-28T20:14:41.378Z,17.11
2022-07-28T20:17:16.344Z,17.07
2022-07-28T20:19:58.878Z,16.95
2022-07-28T20:22:27.812Z,16.88
2022-07-28T20:24:56.793Z,17.00
2022-07-28T20:27:27.345Z,16.99
2022-07-28T20:29:56.287Z,16.98
2022-07-28T20:32:25.305Z,16.96
2022-07-28T20:34:56.685Z,16.89
2022-07-28T20:37:36.958Z,16.83
2022-07-28T20:40:09.381Z,16.81
2022-07-28T20:42:39.799Z,16.82
2022-07-28T20:45:09.671Z,16.77
2022-07-28T20:47:38.643Z,16.75
2022-07-28T20:50:08.607Z,16.75
2022-07-28T20:52:37.767Z,16.74
2022-07-28T20:55:07.408Z,16.71
2022-07-28T20:57:36.374Z,16.67
2022-07-28T21:00:08.992Z,16.66
2022-07-28T21:02:38.894Z,16.62
2022-07-28T21:05:09.104Z,16.59
2022-07-28T21:08:04.899Z,16.41
2022-07-28T21:10:36.124Z,16.33
2022-07-28T21:13:05.481Z,16.22
2022-07-28T21:15:35.757Z,16.16
2022-07-28T21:18:05.169Z,16.28
2022-07-28T21:20:34.187Z,16.22
2022-07-28T21:23:03.294Z,16.17
2022-07-28T21:25:32.701Z,16.14
2022-07-28T21:28:19.298Z,16.15
2022-07-28T21:30:49.768Z,16.21
2022-07-28T21:33:22.731Z,16.29
2022-07-28T21:35:52.371Z,16.17
2022-07-28T21:38:21.889Z,16.16
2022-07-28T21:40:50.816Z,16.06
2022-07-28T21:43:19.975Z,15.96
2022-07-28T21:45:50.325Z,15.92
2022-07-28T21:48:23.344Z,15.83
2022-07-28T21:50:53.004Z,15.77
2022-07-28T21:53:22.402Z,15.70
2022-07-28T21:55:52.771Z,15.65
2022-07-28T21:58:22.309Z,15.62
2022-07-28T22:00:52.652Z,15.57
2022-07-28T22:03:21.619Z,15.54
2022-07-28T22:05:50.726Z,15.51
2022-07-28T22:08:19.701Z,15.51
2022-07-28T22:10:48.327Z,15.50
2022-07-28T22:13:18.724Z,15.47
2022-07-28T22:15:47.417Z,15.45
2022-07-28T22:18:17.712Z,15.42
2022-07-28T22:20:46.786Z,15.42
2022-07-28T22:23:18.629Z,15.41
2022-07-28T22:25:58.346Z,15.45
2022-07-28T22:28:29.518Z,15.43
2022-07-28T22:31:09.311Z,15.34
2022-07-28T22:33:43.543Z,15.37
2022-07-28T22:36:12.652Z,15.42
2022-07-28T22:38:41.286Z,15.38
2022-07-28T22:41:10.595Z,15.49
2022-07-28T22:43:39.446Z,15.60
2022-07-28T22:46:10.546Z,15.81
2022-07-28T22:48:39.565Z,16.83
2022-07-28T22:51:13.401Z,16.98
2022-07-28T22:54:00.581Z,16.16
2022-07-28T22:59:17.702Z,15.46
2022-07-28T23:01:46.727Z,15.28
2022-07-28T23:04:15.803Z,15.16
2022-07-28T23:06:46.610Z,15.07
2022-07-28T23:09:15.478Z,15.06
2022-07-28T23:11:55.542Z,15.05
2022-07-28T23:14:25.041Z,14.99
2022-07-28T23:16:53.741Z,14.92
2022-07-28T23:19:22.441Z,14.88
2022-07-28T23:21:52.797Z,14.89
2022-07-28T23:24:21.405Z,14.88
2022-07-28T23:26:50.237Z,14.88
2022-07-28T23:29:19.096Z,14.91
2022-07-28T23:31:47.808Z,15.20
2022-07-28T23:34:16.801Z,15.36
2022-07-28T23:36:47.707Z,15.09
2022-07-28T23:39:17.733Z,14.91
2022-07-28T23:41:47.821Z,14.82
2022-07-28T23:44:16.773Z,14.79
2022-07-28T23:46:45.606Z,14.76
2022-07-28T23:49:15.772Z,14.77
2022-07-28T23:51:47.693Z,14.72
2022-07-28T23:54:19.321Z,14.66
2022-07-28T23:56:52.031Z,14.63
2022-07-28T23:59:20.856Z,14.61
